sensor_id;sensor_type;location;lat;lon;timestamp;P1;durP1;ratioP1;P2;durP2;ratioP2
77220;SDS011;66217;50.004;8.266;2023-03-31T00:01:23;4.13;;;1.80;;
77220;SDS011;66217;50.004;8.266;2023-03-31T00:03:49;8.27;;;1.95;;
77220;SDS011;66217;50.004;8.266;2023-03-31T00:06:15;5.47;;;1.95;;
77220;SDS011;66217;50.004;8.266;2023-03-31T00:08:43;6.28;;;1.60;;
77220;SDS011;66217;50.004;8.266;2023-03-31T00:11:10;7.15;;;1.95;;
77220;SDS011;66217;50.004;8.266;2023-03-31T00:13:36;8.15;;;2.30;;
77220;SDS011;66217;50.004;8.266;2023-03-31T00:16:03;5.57;;;1.95;;
77220;SDS011;66217;50.004;8.266;2023-03-31T00:18:30;9.68;;;2.20;;
77220;SDS011;66217;50.004;8.266;2023-03-31T00:24:02;7.13;;;2.00;;
77220;SDS011;66217;50.004;8.266;2023-03-31T00:26:29;4.55;;;1.80;;
77220;SDS011;66217;50.004;8.266;2023-03-31T00:28:54;9.77;;;2.00;;
77220;SDS011;66217;50.004;8.266;2023-03-31T00:31:21;9.00;;;1.90;;
77220;SDS011;66217;50.004;8.266;2023-03-31T00:33:47;8.13;;;2.13;;
77220;SDS011;66217;50.004;8.266;2023-03-31T00:36:12;10.35;;;2.20;;
77220;SDS011;66217;50.004;8.266;2023-03-31T00:38:41;8.43;;;2.30;;
77220;SDS011;66217;50.004;8.266;2023-03-31T00:41:10;5.82;;;2.30;;
77220;SDS011;66217;50.004;8.266;2023-03-31T00:43:36;7.13;;;2.03;;
77220;SDS011;66217;50.004;8.266;2023-03-31T00:46:16;6.75;;;1.95;;
77220;SDS011;66217;50.004;8.266;2023-03-31T00:48:47;6.30;;;2.20;;
77220;SDS011;66217;50.004;8.266;2023-03-31T00:51:16;8.13;;;1.92;;
77220;SDS011;66217;50.004;8.266;2023-03-31T00:53:45;5.43;;;1.90;;
77220;SDS011;66217;50.004;8.266;2023-03-31T00:56:12;9.48;;;2.30;;
77220;SDS011;66217;50.004;8.266;2023-03-31T00:58:39;9.38;;;2.17;;
77220;SDS011;66217;50.004;8.266;2023-03-31T01:01:08;6.85;;;1.85;;
77220;SDS011;66217;50.004;8.266;2023-03-31T01:03:35;7.88;;;2.30;;
77220;SDS011;66217;50.004;8.266;2023-03-31T01:06:03;10.02;;;1.83;;
77220;SDS011;66217;50.004;8.266;2023-03-31T01:08:31;10.32;;;1.95;;
77220;SDS011;66217;50.004;8.266;2023-03-31T01:10:57;10.20;;;2.30;;
77220;SDS011;66217;50.004;8.266;2023-03-31T01:13:26;8.73;;;2.05;;
77220;SDS011;66217;50.004;8.266;2023-03-31T01:15:51;5.70;;;1.88;;
77220;SDS011;66217;50.004;8.266;2023-03-31T01:18:17;9.07;;;2.65;;
77220;SDS011;66217;50.004;8.266;2023-03-31T01:29:34;8.07;;;2.45;;
77220;SDS011;66217;50.004;8.266;2023-03-31T01:35:25;8.57;;;2.15;;
77220;SDS011;66217;50.004;8.266;2023-03-31T01:41:04;8.43;;;2.25;;
77220;SDS011;66217;50.004;8.266;2023-03-31T01:44:13;6.78;;;1.90;;
77220;SDS011;66217;50.004;8.266;2023-03-31T01:46:41;5.50;;;1.85;;
77220;SDS011;66217;50.004;8.266;2023-03-31T01:49:17;7.75;;;2.00;;
77220;SDS011;66217;50.004;8.266;2023-03-31T01:54:41;7.68;;;2.10;;
77220;SDS011;66217;50.004;8.266;2023-03-31T01:57:28;6.53;;;2.08;;
77220;SDS011;66217;50.004;8.266;2023-03-31T02:05:08;9.95;;;2.25;;
77220;SDS011;66217;50.004;8.266;2023-03-31T02:07:41;7.85;;;1.92;;
77220;SDS011;66217;50.004;8.266;2023-03-31T02:10:08;8.18;;;2.20;;
77220;SDS011;66217;50.004;8.266;2023-03-31T02:12:36;12.20;;;2.47;;
77220;SDS011;66217;50.004;8.266;2023-03-31T02:15:03;9.30;;;2.20;;
77220;SDS011;66217;50.004;8.266;2023-03-31T02:17:31;12.85;;;2.80;;
77220;SDS011;66217;50.004;8.266;2023-03-31T02:20:02;12.10;;;3.00;;
77220;SDS011;66217;50.004;8.266;2023-03-31T02:22:31;11.68;;;2.63;;
77220;SDS011;66217;50.004;8.266;2023-03-31T02:25:00;10.95;;;3.13;;
77220;SDS011;66217;50.004;8.266;2023-03-31T02:27:37;9.60;;;2.35;;
77220;SDS011;66217;50.004;8.266;2023-03-31T02:30:05;10.95;;;2.58;;
77220;SDS011;66217;50.004;8.266;2023-03-31T02:35:03;8.90;;;2.53;;
77220;SDS011;66217;50.004;8.266;2023-03-31T02:37:31;7.85;;;1.92;;
77220;SDS011;66217;50.004;8.266;2023-03-31T02:39:57;8.52;;;2.08;;
77220;SDS011;66217;50.004;8.266;2023-03-31T02:42:24;12.40;;;3.08;;
77220;SDS011;66217;50.004;8.266;2023-03-31T02:44:50;10.02;;;2.13;;
77220;SDS011;66217;50.004;8.266;2023-03-31T02:47:16;10.88;;;2.17;;
77220;SDS011;66217;50.004;8.266;2023-03-31T02:49:47;11.60;;;2.45;;
77220;SDS011;66217;50.004;8.266;2023-03-31T02:58:02;11.63;;;2.08;;
77220;SDS011;66217;50.004;8.266;2023-03-31T03:00:48;8.35;;;2.00;;
77220;SDS011;66217;50.004;8.266;2023-03-31T03:06:10;8.65;;;1.92;;
77220;SDS011;66217;50.004;8.266;2023-03-31T03:12:04;8.35;;;2.10;;
77220;SDS011;66217;50.004;8.266;2023-03-31T03:17:14;6.70;;;2.28;;
77220;SDS011;66217;50.004;8.266;2023-03-31T03:19:42;7.43;;;2.13;;
77220;SDS011;66217;50.004;8.266;2023-03-31T03:22:08;6.53;;;1.67;;
77220;SDS011;66217;50.004;8.266;2023-03-31T03:24:34;7.57;;;2.00;;
77220;SDS011;66217;50.004;8.266;2023-03-31T03:26:59;10.20;;;1.98;;
77220;SDS011;66217;50.004;8.266;2023-03-31T03:29:25;9.27;;;2.30;;
77220;SDS011;66217;50.004;8.266;2023-03-31T03:31:52;5.65;;;1.70;;
77220;SDS011;66217;50.004;8.266;2023-03-31T03:34:17;8.40;;;1.80;;
77220;SDS011;66217;50.004;8.266;2023-03-31T03:36:44;11.23;;;1.80;;
77220;SDS011;66217;50.004;8.266;2023-03-31T03:39:10;6.68;;;2.03;;
77220;SDS011;66217;50.004;8.266;2023-03-31T03:41:36;9.45;;;1.77;;
77220;SDS011;66217;50.004;8.266;2023-03-31T03:44:02;8.02;;;2.25;;
77220;SDS011;66217;50.004;8.266;2023-03-31T03:46:27;8.73;;;1.75;;
77220;SDS011;66217;50.004;8.266;2023-03-31T03:48:52;10.60;;;1.75;;
77220;SDS011;66217;50.004;8.266;2023-03-31T03:51:18;9.80;;;2.17;;
77220;SDS011;66217;50.004;8.266;2023-03-31T03:53:43;6.50;;;2.00;;
77220;SDS011;66217;50.004;8.266;2023-03-31T03:56:09;8.82;;;1.98;;
77220;SDS011;66217;50.004;8.266;2023-03-31T03:58:34;5.75;;;1.70;;
77220;SDS011;66217;50.004;8.266;2023-03-31T04:01:00;11.70;;;2.72;;
77220;SDS011;66217;50.004;8.266;2023-03-31T04:03:26;8.20;;;1.83;;
77220;SDS011;66217;50.004;8.266;2023-03-31T04:05:51;5.18;;;1.60;;
77220;SDS011;66217;50.004;8.266;2023-03-31T04:08:17;10.35;;;2.00;;
77220;SDS011;66217;50.004;8.266;2023-03-31T04:10:44;6.80;;;2.05;;
77220;SDS011;66217;50.004;8.266;2023-03-31T04:13:10;11.32;;;2.00;;
77220;SDS011;66217;50.004;8.266;2023-03-31T04:15:36;8.50;;;1.70;;
77220;SDS011;66217;50.004;8.266;2023-03-31T04:18:01;4.30;;;1.48;;
77220;SDS011;66217;50.004;8.266;2023-03-31T04:20:26;8.80;;;1.88;;
77220;SDS011;66217;50.004;8.266;2023-03-31T04:22:54;6.32;;;1.70;;
77220;SDS011;66217;50.004;8.266;2023-03-31T04:25:20;8.02;;;2.10;;
77220;SDS011;66217;50.004;8.266;2023-03-31T04:27:48;9.15;;;2.03;;
77220;SDS011;66217;50.004;8.266;2023-03-31T04:30:20;7.40;;;1.95;;
77220;SDS011;66217;50.004;8.266;2023-03-31T04:32:48;6.72;;;1.90;;
77220;SDS011;66217;50.004;8.266;2023-03-31T04:35:17;8.15;;;2.00;;
77220;SDS011;66217;50.004;8.266;2023-03-31T04:37:45;8.50;;;1.80;;
77220;SDS011;66217;50.004;8.266;2023-03-31T04:40:11;4.40;;;1.50;;
77220;SDS011;66217;50.004;8.266;2023-03-31T04:42:37;5.22;;;1.75;;
77220;SDS011;66217;50.004;8.266;2023-03-31T04:45:02;4.75;;;1.65;;
77220;SDS011;66217;50.004;8.266;2023-03-31T04:47:28;9.73;;;1.80;;
77220;SDS011;66217;50.004;8.266;2023-03-31T04:49:53;7.40;;;1.73;;
77220;SDS011;66217;50.004;8.266;2023-03-31T04:52:19;8.27;;;2.03;;
77220;SDS011;66217;50.004;8.266;2023-03-31T04:54:45;5.53;;;1.77;;
77220;SDS011;66217;50.004;8.266;2023-03-31T04:57:10;4.80;;;1.70;;
77220;SDS011;66217;50.004;8.266;2023-03-31T04:59:36;11.98;;;2.78;;
77220;SDS011;66217;50.004;8.266;2023-03-31T05:02:01;8.82;;;1.88;;
77220;SDS011;66217;50.004;8.266;2023-03-31T05:04:26;13.93;;;2.10;;
77220;SDS011;66217;50.004;8.266;2023-03-31T05:06:52;13.13;;;1.95;;
77220;SDS011;66217;50.004;8.266;2023-03-31T05:09:17;6.40;;;2.17;;
77220;SDS011;66217;50.004;8.266;2023-03-31T05:11:44;6.82;;;1.52;;
77220;SDS011;66217;50.004;8.266;2023-03-31T05:14:09;7.72;;;1.70;;
77220;SDS011;66217;50.004;8.266;2023-03-31T05:16:35;6.93;;;1.70;;
77220;SDS011;66217;50.004;8.266;2023-03-31T05:19:01;6.88;;;1.70;;
77220;SDS011;66217;50.004;8.266;2023-03-31T05:21:29;9.85;;;2.30;;
77220;SDS011;66217;50.004;8.266;2023-03-31T05:23:55;6.90;;;1.60;;
77220;SDS011;66217;50.004;8.266;2023-03-31T05:26:21;9.82;;;2.13;;
77220;SDS011;66217;50.004;8.266;2023-03-31T05:28:49;6.03;;;1.60;;
77220;SDS011;66217;50.004;8.266;2023-03-31T05:31:15;10.20;;;1.73;;
77220;SDS011;66217;50.004;8.266;2023-03-31T05:33:41;6.97;;;1.52;;
77220;SDS011;66217;50.004;8.266;2023-03-31T05:36:07;12.55;;;2.28;;
77220;SDS011;66217;50.004;8.266;2023-03-31T05:38:34;6.88;;;1.85;;
77220;SDS011;66217;50.004;8.266;2023-03-31T05:40:59;9.05;;;2.03;;
77220;SDS011;66217;50.004;8.266;2023-03-31T05:43:25;7.55;;;2.20;;
77220;SDS011;66217;50.004;8.266;2023-03-31T05:45:50;9.88;;;1.90;;
77220;SDS011;66217;50.004;8.266;2023-03-31T05:48:16;7.00;;;1.98;;
77220;SDS011;66217;50.004;8.266;2023-03-31T05:50:41;12.10;;;2.05;;
77220;SDS011;66217;50.004;8.266;2023-03-31T05:53:08;9.63;;;2.53;;
77220;SDS011;66217;50.004;8.266;2023-03-31T05:55:37;8.52;;;2.08;;
77220;SDS011;66217;50.004;8.266;2023-03-31T05:58:03;11.30;;;2.60;;
77220;SDS011;66217;50.004;8.266;2023-03-31T06:00:28;7.47;;;2.15;;
77220;SDS011;66217;50.004;8.266;2023-03-31T06:02:54;8.80;;;2.03;;
77220;SDS011;66217;50.004;8.266;2023-03-31T06:05:19;8.35;;;1.98;;
77220;SDS011;66217;50.004;8.266;2023-03-31T06:07:45;9.63;;;2.00;;
77220;SDS011;66217;50.004;8.266;2023-03-31T06:10:10;7.28;;;2.58;;
77220;SDS011;66217;50.004;8.266;2023-03-31T06:12:36;11.23;;;2.78;;
77220;SDS011;66217;50.004;8.266;2023-03-31T06:15:01;9.98;;;2.85;;
77220;SDS011;66217;50.004;8.266;2023-03-31T06:17:27;12.45;;;2.20;;
77220;SDS011;66217;50.004;8.266;2023-03-31T06:19:53;10.10;;;2.22;;
77220;SDS011;66217;50.004;8.266;2023-03-31T06:22:18;7.68;;;1.98;;
77220;SDS011;66217;50.004;8.266;2023-03-31T06:24:45;6.50;;;2.15;;
77220;SDS011;66217;50.004;8.266;2023-03-31T06:27:10;6.63;;;2.00;;
77220;SDS011;66217;50.004;8.266;2023-03-31T06:29:36;14.77;;;3.03;;
77220;SDS011;66217;50.004;8.266;2023-03-31T06:32:01;8.80;;;1.90;;
77220;SDS011;66217;50.004;8.266;2023-03-31T06:34:29;8.55;;;3.35;;
77220;SDS011;66217;50.004;8.266;2023-03-31T06:36:54;9.85;;;3.20;;
77220;SDS011;66217;50.004;8.266;2023-03-31T06:39:20;10.55;;;2.60;;
77220;SDS011;66217;50.004;8.266;2023-03-31T06:41:45;10.25;;;2.28;;
77220;SDS011;66217;50.004;8.266;2023-03-31T06:44:18;7.97;;;2.72;;
77220;SDS011;66217;50.004;8.266;2023-03-31T06:46:47;8.57;;;2.60;;
77220;SDS011;66217;50.004;8.266;2023-03-31T06:49:13;10.55;;;2.65;;
77220;SDS011;66217;50.004;8.266;2023-03-31T06:51:38;9.35;;;3.53;;
77220;SDS011;66217;50.004;8.266;2023-03-31T06:54:04;12.27;;;2.80;;
77220;SDS011;66217;50.004;8.266;2023-03-31T06:56:30;11.90;;;2.75;;
77220;SDS011;66217;50.004;8.266;2023-03-31T06:58:55;10.10;;;2.92;;
77220;SDS011;66217;50.004;8.266;2023-03-31T07:01:21;7.40;;;2.88;;
77220;SDS011;66217;50.004;8.266;2023-03-31T07:03:46;14.82;;;3.28;;
77220;SDS011;66217;50.004;8.266;2023-03-31T07:06:12;9.25;;;3.28;;
77220;SDS011;66217;50.004;8.266;2023-03-31T07:08:37;10.52;;;3.05;;
77220;SDS011;66217;50.004;8.266;2023-03-31T07:11:03;12.10;;;3.03;;
77220;SDS011;66217;50.004;8.266;2023-03-31T07:13:31;8.30;;;3.10;;
77220;SDS011;66217;50.004;8.266;2023-03-31T07:15:56;13.18;;;3.22;;
77220;SDS011;66217;50.004;8.266;2023-03-31T07:18:22;12.35;;;3.10;;
77220;SDS011;66217;50.004;8.266;2023-03-31T07:20:56;10.57;;;2.85;;
77220;SDS011;66217;50.004;8.266;2023-03-31T07:23:22;10.93;;;3.47;;
77220;SDS011;66217;50.004;8.266;2023-03-31T07:25:47;13.18;;;3.47;;
77220;SDS011;66217;50.004;8.266;2023-03-31T07:28:13;7.22;;;2.35;;
77220;SDS011;66217;50.004;8.266;2023-03-31T07:30:39;6.78;;;2.70;;
77220;SDS011;66217;50.004;8.266;2023-03-31T07:33:05;8.95;;;2.47;;
77220;SDS011;66217;50.004;8.266;2023-03-31T07:35:31;9.80;;;2.90;;
77220;SDS011;66217;50.004;8.266;2023-03-31T07:37:57;8.60;;;2.75;;
77220;SDS011;66217;50.004;8.266;2023-03-31T07:40:24;8.50;;;2.80;;
77220;SDS011;66217;50.004;8.266;2023-03-31T07:42:51;5.68;;;2.42;;
77220;SDS011;66217;50.004;8.266;2023-03-31T07:45:18;6.35;;;2.80;;
77220;SDS011;66217;50.004;8.266;2023-03-31T07:47:44;7.95;;;2.40;;
77220;SDS011;66217;50.004;8.266;2023-03-31T07:50:13;10.88;;;2.40;;
77220;SDS011;66217;50.004;8.266;2023-03-31T07:52:40;8.23;;;2.10;;
77220;SDS011;66217;50.004;8.266;2023-03-31T07:55:06;7.45;;;2.40;;
77220;SDS011;66217;50.004;8.266;2023-03-31T07:57:32;8.88;;;2.33;;
77220;SDS011;66217;50.004;8.266;2023-03-31T07:59:58;5.55;;;2.65;;
77220;SDS011;66217;50.004;8.266;2023-03-31T08:02:23;8.05;;;2.42;;
77220;SDS011;66217;50.004;8.266;2023-03-31T08:04:49;6.30;;;2.08;;
77220;SDS011;66217;50.004;8.266;2023-03-31T08:07:15;4.95;;;2.33;;
77220;SDS011;66217;50.004;8.266;2023-03-31T08:09:42;3.38;;;1.90;;
77220;SDS011;66217;50.004;8.266;2023-03-31T08:12:08;6.97;;;1.85;;
77220;SDS011;66217;50.004;8.266;2023-03-31T08:14:34;5.20;;;1.80;;
77220;SDS011;66217;50.004;8.266;2023-03-31T08:16:59;3.97;;;1.90;;
77220;SDS011;66217;50.004;8.266;2023-03-31T08:19:25;6.30;;;2.47;;
77220;SDS011;66217;50.004;8.266;2023-03-31T08:21:51;3.88;;;1.83;;
77220;SDS011;66217;50.004;8.266;2023-03-31T08:24:17;10.10;;;5.05;;
77220;SDS011;66217;50.004;8.266;2023-03-31T08:26:42;4.60;;;2.55;;
77220;SDS011;66217;50.004;8.266;2023-03-31T08:29:08;5.55;;;2.08;;
77220;SDS011;66217;50.004;8.266;2023-03-31T08:31:33;4.70;;;1.88;;
77220;SDS011;66217;50.004;8.266;2023-03-31T08:33:59;4.72;;;1.92;;
77220;SDS011;66217;50.004;8.266;2023-03-31T08:36:25;5.25;;;1.83;;
77220;SDS011;66217;50.004;8.266;2023-03-31T08:38:51;7.30;;;2.20;;
77220;SDS011;66217;50.004;8.266;2023-03-31T08:46:57;4.57;;;2.15;;
77220;SDS011;66217;50.004;8.266;2023-03-31T08:49:24;5.95;;;2.17;;
77220;SDS011;66217;50.004;8.266;2023-03-31T08:51:51;6.38;;;2.13;;
77220;SDS011;66217;50.004;8.266;2023-03-31T08:57:05;5.72;;;2.00;;
77220;SDS011;66217;50.004;8.266;2023-03-31T08:59:38;5.75;;;2.50;;
77220;SDS011;66217;50.004;8.266;2023-03-31T09:05:11;4.80;;;2.08;;
77220;SDS011;66217;50.004;8.266;2023-03-31T09:13:37;6.00;;;2.25;;
77220;SDS011;66217;50.004;8.266;2023-03-31T09:16:08;5.97;;;2.28;;
77220;SDS011;66217;50.004;8.266;2023-03-31T09:18:37;7.95;;;2.15;;
77220;SDS011;66217;50.004;8.266;2023-03-31T09:21:22;6.57;;;2.30;;
77220;SDS011;66217;50.004;8.266;2023-03-31T09:29:11;7.93;;;2.30;;
77220;SDS011;66217;50.004;8.266;2023-03-31T09:31:43;5.80;;;2.10;;
77220;SDS011;66217;50.004;8.266;2023-03-31T09:34:14;9.82;;;2.80;;
77220;SDS011;66217;50.004;8.266;2023-03-31T09:36:41;5.97;;;2.30;;
77220;SDS011;66217;50.004;8.266;2023-03-31T09:39:09;7.70;;;2.53;;
77220;SDS011;66217;50.004;8.266;2023-03-31T09:41:37;12.60;;;2.55;;
77220;SDS011;66217;50.004;8.266;2023-03-31T09:44:03;9.10;;;2.15;;
77220;SDS011;66217;50.004;8.266;2023-03-31T09:46:32;12.52;;;2.40;;
77220;SDS011;66217;50.004;8.266;2023-03-31T09:49:13;8.43;;;2.67;;
77220;SDS011;66217;50.004;8.266;2023-03-31T09:56:45;9.00;;;2.10;;
77220;SDS011;66217;50.004;8.266;2023-03-31T10:01:51;9.00;;;2.25;;
77220;SDS011;66217;50.004;8.266;2023-03-31T10:04:19;8.43;;;1.92;;
77220;SDS011;66217;50.004;8.266;2023-03-31T10:06:47;8.77;;;2.38;;
77220;SDS011;66217;50.004;8.266;2023-03-31T10:09:13;9.95;;;2.47;;
77220;SDS011;66217;50.004;8.266;2023-03-31T10:11:39;8.90;;;2.00;;
77220;SDS011;66217;50.004;8.266;2023-03-31T10:14:16;3.97;;;1.40;;
77220;SDS011;66217;50.004;8.266;2023-03-31T10:16:43;5.32;;;1.60;;
77220;SDS011;66217;50.004;8.266;2023-03-31T10:21:44;7.55;;;1.80;;
77220;SDS011;66217;50.004;8.266;2023-03-31T10:24:11;5.50;;;1.40;;
77220;SDS011;66217;50.004;8.266;2023-03-31T10:26:36;4.25;;;1.20;;
77220;SDS011;66217;50.004;8.266;2023-03-31T10:29:02;7.45;;;1.60;;
77220;SDS011;66217;50.004;8.266;2023-03-31T10:31:35;3.70;;;1.17;;
77220;SDS011;66217;50.004;8.266;2023-03-31T10:34:08;4.22;;;1.50;;
77220;SDS011;66217;50.004;8.266;2023-03-31T10:36:39;2.05;;;1.17;;
77220;SDS011;66217;50.004;8.266;2023-03-31T10:39:11;5.20;;;1.50;;
77220;SDS011;66217;50.004;8.266;2023-03-31T10:41:39;7.45;;;1.60;;
77220;SDS011;66217;50.004;8.266;2023-03-31T10:44:05;4.53;;;1.10;;
77220;SDS011;66217;50.004;8.266;2023-03-31T10:46:50;3.97;;;1.25;;
77220;SDS011;66217;50.004;8.266;2023-03-31T10:49:26;3.83;;;1.40;;
77220;SDS011;66217;50.004;8.266;2023-03-31T10:51:52;3.83;;;1.25;;
77220;SDS011;66217;50.004;8.266;2023-03-31T10:54:19;3.78;;;1.40;;
77220;SDS011;66217;50.004;8.266;2023-03-31T10:56:45;4.63;;;1.77;;
77220;SDS011;66217;50.004;8.266;2023-03-31T11:02:04;6.85;;;1.88;;
77220;SDS011;66217;50.004;8.266;2023-03-31T11:07:44;3.67;;;1.40;;
77220;SDS011;66217;50.004;8.266;2023-03-31T11:12:59;6.85;;;1.92;;
77220;SDS011;66217;50.004;8.266;2023-03-31T11:18:16;6.03;;;2.40;;
77220;SDS011;66217;50.004;8.266;2023-03-31T11:20:58;8.27;;;2.50;;
77220;SDS011;66217;50.004;8.266;2023-03-31T11:37:02;9.82;;;2.20;;
77220;SDS011;66217;50.004;8.266;2023-03-31T11:42:46;12.48;;;3.25;;
77220;SDS011;66217;50.004;8.266;2023-03-31T11:45:16;11.57;;;2.45;;
77220;SDS011;66217;50.004;8.266;2023-03-31T11:47:44;13.43;;;3.80;;
77220;SDS011;66217;50.004;8.266;2023-03-31T11:50:11;12.30;;;2.75;;
77220;SDS011;66217;50.004;8.266;2023-03-31T11:52:47;12.15;;;2.78;;
77220;SDS011;66217;50.004;8.266;2023-03-31T11:55:18;13.60;;;2.45;;
77220;SDS011;66217;50.004;8.266;2023-03-31T12:00:59;14.63;;;2.58;;
77220;SDS011;66217;50.004;8.266;2023-03-31T12:06:00;15.00;;;3.25;;
77220;SDS011;66217;50.004;8.266;2023-03-31T12:11:13;12.35;;;2.60;;
77220;SDS011;66217;50.004;8.266;2023-03-31T12:16:50;12.80;;;2.63;;
77220;SDS011;66217;50.004;8.266;2023-03-31T12:19:34;7.07;;;1.63;;
77220;SDS011;66217;50.004;8.266;2023-03-31T12:22:24;7.25;;;1.45;;
77220;SDS011;66217;50.004;8.266;2023-03-31T12:24:53;9.25;;;1.80;;
77220;SDS011;66217;50.004;8.266;2023-03-31T12:27:21;9.25;;;2.28;;
77220;SDS011;66217;50.004;8.266;2023-03-31T12:29:50;4.75;;;1.25;;
77220;SDS011;66217;50.004;8.266;2023-03-31T12:32:37;6.55;;;1.52;;
77220;SDS011;66217;50.004;8.266;2023-03-31T12:35:07;5.07;;;1.55;;
77220;SDS011;66217;50.004;8.266;2023-03-31T12:40:33;7.75;;;1.92;;
77220;SDS011;66217;50.004;8.266;2023-03-31T12:46:08;8.98;;;2.03;;
77220;SDS011;66217;50.004;8.266;2023-03-31T12:54:17;5.35;;;1.63;;
77220;SDS011;66217;50.004;8.266;2023-03-31T12:59:35;6.90;;;1.85;;
77220;SDS011;66217;50.004;8.266;2023-03-31T13:04:33;6.03;;;1.45;;
77220;SDS011;66217;50.004;8.266;2023-03-31T13:07:01;9.07;;;1.60;;
77220;SDS011;66217;50.004;8.266;2023-03-31T13:09:37;7.18;;;1.88;;
77220;SDS011;66217;50.004;8.266;2023-03-31T13:12:21;3.90;;;1.45;;
77220;SDS011;66217;50.004;8.266;2023-03-31T13:14:49;2.60;;;0.77;;
77220;SDS011;66217;50.004;8.266;2023-03-31T13:17:28;3.80;;;1.40;;
77220;SDS011;66217;50.004;8.266;2023-03-31T13:19:56;1.95;;;1.00;;
77220;SDS011;66217;50.004;8.266;2023-03-31T13:22:42;4.53;;;1.92;;
77220;SDS011;66217;50.004;8.266;2023-03-31T13:28:14;1.58;;;1.00;;
77220;SDS011;66217;50.004;8.266;2023-03-31T13:30:52;0.95;;;0.60;;
77220;SDS011;66217;50.004;8.266;2023-03-31T13:33:19;2.15;;;0.80;;
77220;SDS011;66217;50.004;8.266;2023-03-31T13:35:46;3.08;;;1.30;;
77220;SDS011;66217;50.004;8.266;2023-03-31T13:43:47;3.28;;;1.27;;
77220;SDS011;66217;50.004;8.266;2023-03-31T13:46:31;3.20;;;0.98;;
77220;SDS011;66217;50.004;8.266;2023-03-31T13:51:47;2.45;;;1.20;;
77220;SDS011;66217;50.004;8.266;2023-03-31T13:54:37;6.43;;;1.40;;
77220;SDS011;66217;50.004;8.266;2023-03-31T13:58:21;9.00;;;2.67;;
77220;SDS011;66217;50.004;8.266;2023-03-31T14:06:05;7.90;;;1.83;;
77220;SDS011;66217;50.004;8.266;2023-03-31T14:08:50;4.70;;;1.33;;
77220;SDS011;66217;50.004;8.266;2023-03-31T14:11:22;4.38;;;1.40;;
77220;SDS011;66217;50.004;8.266;2023-03-31T14:16:33;5.55;;;1.60;;
77220;SDS011;66217;50.004;8.266;2023-03-31T14:19:08;6.85;;;1.55;;
77220;SDS011;66217;50.004;8.266;2023-03-31T14:21:54;5.90;;;1.83;;
77220;SDS011;66217;50.004;8.266;2023-03-31T14:24:29;6.60;;;1.65;;
77220;SDS011;66217;50.004;8.266;2023-03-31T14:32:29;5.22;;;1.92;;
77220;SDS011;66217;50.004;8.266;2023-03-31T14:37:51;5.70;;;1.60;;
77220;SDS011;66217;50.004;8.266;2023-03-31T14:40:17;10.52;;;1.70;;
77220;SDS011;66217;50.004;8.266;2023-03-31T14:42:44;6.15;;;1.90;;
77220;SDS011;66217;50.004;8.266;2023-03-31T14:45:23;6.75;;;1.98;;
77220;SDS011;66217;50.004;8.266;2023-03-31T14:47:56;11.52;;;2.15;;
77220;SDS011;66217;50.004;8.266;2023-03-31T14:50:28;5.43;;;1.60;;
77220;SDS011;66217;50.004;8.266;2023-03-31T14:52:55;3.80;;;1.50;;
77220;SDS011;66217;50.004;8.266;2023-03-31T14:55:21;5.57;;;1.42;;
77220;SDS011;66217;50.004;8.266;2023-03-31T14:57:49;4.60;;;1.58;;
77220;SDS011;66217;50.004;8.266;2023-03-31T15:00:19;4.25;;;1.70;;
77220;SDS011;66217;50.004;8.266;2023-03-31T15:02:49;4.88;;;1.70;;
77220;SDS011;66217;50.004;8.266;2023-03-31T15:05:25;6.53;;;2.03;;
77220;SDS011;66217;50.004;8.266;2023-03-31T15:07:56;6.28;;;1.95;;
77220;SDS011;66217;50.004;8.266;2023-03-31T15:10:23;6.78;;;2.22;;
77220;SDS011;66217;50.004;8.266;2023-03-31T15:12:48;8.65;;;2.00;;
77220;SDS011;66217;50.004;8.266;2023-03-31T15:15:15;4.70;;;1.73;;
77220;SDS011;66217;50.004;8.266;2023-03-31T15:17:42;6.70;;;1.77;;
77220;SDS011;66217;50.004;8.266;2023-03-31T15:20:23;3.95;;;1.40;;
77220;SDS011;66217;50.004;8.266;2023-03-31T15:22:55;3.63;;;1.50;;
77220;SDS011;66217;50.004;8.266;2023-03-31T15:25:22;4.40;;;1.33;;
77220;SDS011;66217;50.004;8.266;2023-03-31T15:28:09;5.00;;;1.75;;
77220;SDS011;66217;50.004;8.266;2023-03-31T15:30:36;5.10;;;1.80;;
77220;SDS011;66217;50.004;8.266;2023-03-31T15:33:04;6.25;;;1.80;;
77220;SDS011;66217;50.004;8.266;2023-03-31T15:35:31;4.95;;;1.77;;
77220;SDS011;66217;50.004;8.266;2023-03-31T15:37:58;5.93;;;1.50;;
77220;SDS011;66217;50.004;8.266;2023-03-31T15:40:37;4.25;;;1.85;;
77220;SDS011;66217;50.004;8.266;2023-03-31T15:43:13;7.18;;;1.52;;
77220;SDS011;66217;50.004;8.266;2023-03-31T15:45:44;5.85;;;2.05;;
77220;SDS011;66217;50.004;8.266;2023-03-31T15:48:31;5.82;;;1.88;;
77220;SDS011;66217;50.004;8.266;2023-03-31T15:51:03;7.00;;;2.15;;
77220;SDS011;66217;50.004;8.266;2023-03-31T15:53:35;7.38;;;2.03;;
77220;SDS011;66217;50.004;8.266;2023-03-31T15:56:02;5.20;;;1.40;;
77220;SDS011;66217;50.004;8.266;2023-03-31T16:01:18;9.52;;;2.20;;
77220;SDS011;66217;50.004;8.266;2023-03-31T16:03:44;6.97;;;1.85;;
77220;SDS011;66217;50.004;8.266;2023-03-31T16:06:21;6.95;;;1.95;;
77220;SDS011;66217;50.004;8.266;2023-03-31T16:08:50;7.13;;;1.92;;
77220;SDS011;66217;50.004;8.266;2023-03-31T16:11:23;7.30;;;1.90;;
77220;SDS011;66217;50.004;8.266;2023-03-31T16:13:53;15.43;;;2.40;;
77220;SDS011;66217;50.004;8.266;2023-03-31T16:16:21;6.65;;;1.83;;
77220;SDS011;66217;50.004;8.266;2023-03-31T16:18:48;9.40;;;1.75;;
77220;SDS011;66217;50.004;8.266;2023-03-31T16:21:23;6.43;;;1.58;;
77220;SDS011;66217;50.004;8.266;2023-03-31T16:23:54;6.80;;;1.83;;
77220;SDS011;66217;50.004;8.266;2023-03-31T16:26:22;7.28;;;1.95;;
77220;SDS011;66217;50.004;8.266;2023-03-31T16:28:49;8.10;;;2.20;;
77220;SDS011;66217;50.004;8.266;2023-03-31T16:31:26;8.60;;;1.70;;
77220;SDS011;66217;50.004;8.266;2023-03-31T16:33:53;7.90;;;1.75;;
77220;SDS011;66217;50.004;8.266;2023-03-31T16:36:20;6.55;;;1.67;;
77220;SDS011;66217;50.004;8.266;2023-03-31T16:38:45;10.77;;;1.88;;
77220;SDS011;66217;50.004;8.266;2023-03-31T16:41:11;9.38;;;1.70;;
77220;SDS011;66217;50.004;8.266;2023-03-31T16:43:39;6.78;;;2.10;;
77220;SDS011;66217;50.004;8.266;2023-03-31T16:46:05;10.70;;;2.50;;
77220;SDS011;66217;50.004;8.266;2023-03-31T16:48:30;10.45;;;3.72;;
77220;SDS011;66217;50.004;8.266;2023-03-31T16:51:00;9.93;;;2.33;;
77220;SDS011;66217;50.004;8.266;2023-03-31T16:53:27;6.97;;;1.70;;
77220;SDS011;66217;50.004;8.266;2023-03-31T16:55:55;7.05;;;2.40;;
77220;SDS011;66217;50.004;8.266;2023-03-31T16:58:21;10.48;;;1.80;;
77220;SDS011;66217;50.004;8.266;2023-03-31T17:00:48;7.13;;;1.73;;
77220;SDS011;66217;50.004;8.266;2023-03-31T17:03:14;10.00;;;1.88;;
77220;SDS011;66217;50.004;8.266;2023-03-31T17:05:44;11.82;;;3.25;;
77220;SDS011;66217;50.004;8.266;2023-03-31T17:08:11;13.93;;;3.05;;
77220;SDS011;66217;50.004;8.266;2023-03-31T17:10:38;12.98;;;2.65;;
77220;SDS011;66217;50.004;8.266;2023-03-31T17:13:05;10.98;;;3.38;;
77220;SDS011;66217;50.004;8.266;2023-03-31T17:15:31;8.43;;;2.63;;
77220;SDS011;66217;50.004;8.266;2023-03-31T17:17:58;7.90;;;2.45;;
77220;SDS011;66217;50.004;8.266;2023-03-31T17:20:24;9.48;;;2.60;;
77220;SDS011;66217;50.004;8.266;2023-03-31T17:22:50;7.63;;;1.95;;
77220;SDS011;66217;50.004;8.266;2023-03-31T17:25:16;11.38;;;2.38;;
77220;SDS011;66217;50.004;8.266;2023-03-31T17:27:43;8.68;;;2.17;;
77220;SDS011;66217;50.004;8.266;2023-03-31T17:30:09;9.80;;;2.40;;
77220;SDS011;66217;50.004;8.266;2023-03-31T17:32:35;7.60;;;2.33;;
77220;SDS011;66217;50.004;8.266;2023-03-31T17:35:01;9.20;;;2.47;;
77220;SDS011;66217;50.004;8.266;2023-03-31T17:37:27;12.15;;;2.88;;
77220;SDS011;66217;50.004;8.266;2023-03-31T17:39:52;11.65;;;2.50;;